sensor_id;sensor_type;location;lat;lon;timestamp;P1;durP1;ratioP1;P2;durP2;ratioP2
52962;SDS011;38827;53.024;6.596;2023-01-04T00:41:52;7.28;;;2.80;;
52962;SDS011;38827;53.024;6.596;2023-01-04T01:17:49;7.93;;;2.75;;
52962;SDS011;38827;53.024;6.596;2023-01-04T01:20:15;8.27;;;3.15;;
52962;SDS011;38827;53.024;6.596;2023-01-04T01:22:41;9.85;;;3.42;;
52962;SDS011;38827;53.024;6.596;2023-01-04T01:53:15;6.60;;;2.45;;
52962;SDS011;38827;53.024;6.596;2023-01-04T02:13:55;7.32;;;2.47;;
52962;SDS011;38827;53.024;6.596;2023-01-04T02:27:00;4.13;;;2.20;;
52962;SDS011;38827;53.024;6.596;2023-01-04T02:51:27;5.63;;;2.15;;
52962;SDS011;38827;53.024;6.596;2023-01-04T03:12:24;3.13;;;1.67;;
52962;SDS011;38827;53.024;6.596;2023-01-04T03:15:17;2.05;;;1.75;;
52962;SDS011;38827;53.024;6.596;2023-01-04T03:21:43;3.03;;;1.63;;
52962;SDS011;38827;53.024;6.596;2023-01-04T04:00:36;1.60;;;1.42;;
52962;SDS011;38827;53.024;6.596;2023-01-04T04:10:15;1.85;;;1.55;;
52962;SDS011;38827;53.024;6.596;2023-01-04T04:23:59;2.13;;;1.50;;
52962;SDS011;38827;53.024;6.596;2023-01-04T05:06:03;2.20;;;2.03;;
52962;SDS011;38827;53.024;6.596;2023-01-04T05:10:55;1.97;;;1.87;;
52962;SDS011;38827;53.024;6.596;2023-01-04T05:13:20;2.47;;;2.28;;
52962;SDS011;38827;53.024;6.596;2023-01-04T05:15:50;2.22;;;2.05;;
52962;SDS011;38827;53.024;6.596;2023-01-04T05:18:18;2.45;;;2.10;;
52962;SDS011;38827;53.024;6.596;2023-01-04T05:20:45;3.90;;;2.20;;
52962;SDS011;38827;53.024;6.596;2023-01-04T05:23:12;2.97;;;2.30;;
52962;SDS011;38827;53.024;6.596;2023-01-04T05:46:45;3.00;;;2.42;;
52962;SDS011;38827;53.024;6.596;2023-01-04T06:15:37;3.78;;;2.88;;
52962;SDS011;38827;53.024;6.596;2023-01-04T06:21:08;3.50;;;2.83;;
52962;SDS011;38827;53.024;6.596;2023-01-04T06:37:37;4.45;;;2.70;;
52962;SDS011;38827;53.024;6.596;2023-01-04T07:01:59;3.47;;;1.67;;
52962;SDS011;38827;53.024;6.596;2023-01-04T07:04:25;1.35;;;1.25;;
52962;SDS011;38827;53.024;6.596;2023-01-04T07:06:50;1.50;;;1.40;;
52962;SDS011;38827;53.024;6.596;2023-01-04T07:55:59;3.55;;;1.30;;
52962;SDS011;38827;53.024;6.596;2023-01-04T08:58:11;2.65;;;1.45;;
52962;SDS011;38827;53.024;6.596;2023-01-04T09:00:36;3.28;;;1.30;;
52962;SDS011;38827;53.024;6.596;2023-01-04T09:03:03;2.00;;;1.50;;
52962;SDS011;38827;53.024;6.596;2023-01-04T09:20:28;0.80;;;0.80;;
52962;SDS011;38827;53.024;6.596;2023-01-04T09:29:13;0.93;;;0.77;;
52962;SDS011;38827;53.024;6.596;2023-01-04T09:31:58;0.95;;;0.73;;
52962;SDS011;38827;53.024;6.596;2023-01-04T10:01:45;3.70;;;1.30;;
52962;SDS011;38827;53.024;6.596;2023-01-04T10:04:24;4.30;;;1.58;;
52962;SDS011;38827;53.024;6.596;2023-01-04T10:07:04;6.47;;;1.88;;
52962;SDS011;38827;53.024;6.596;2023-01-04T10:09:29;4.32;;;1.60;;
52962;SDS011;38827;53.024;6.596;2023-01-04T10:17:41;6.65;;;1.83;;
52962;SDS011;38827;53.024;6.596;2023-01-04T10:23:12;9.95;;;2.28;;
52962;SDS011;38827;53.024;6.596;2023-01-04T10:25:48;9.07;;;2.55;;
52962;SDS011;38827;53.024;6.596;2023-01-04T10:36:37;12.23;;;2.75;;
52962;SDS011;38827;53.024;6.596;2023-01-04T10:39:09;12.07;;;2.83;;
52962;SDS011;38827;53.024;6.596;2023-01-04T10:41:42;17.20;;;3.13;;
52962;SDS011;38827;53.024;6.596;2023-01-04T10:47:11;15.10;;;3.65;;
52962;SDS011;38827;53.024;6.596;2023-01-04T10:50:15;15.18;;;2.80;;
52962;SDS011;38827;53.024;6.596;2023-01-04T10:58:36;17.45;;;3.33;;
52962;SDS011;38827;53.024;6.596;2023-01-04T11:01:12;16.52;;;2.80;;
52962;SDS011;38827;53.024;6.596;2023-01-04T11:04:01;18.92;;;3.40;;
52962;SDS011;38827;53.024;6.596;2023-01-04T11:06:33;25.23;;;4.28;;
52962;SDS011;38827;53.024;6.596;2023-01-04T11:09:07;21.75;;;4.03;;
52962;SDS011;38827;53.024;6.596;2023-01-04T11:11:47;17.45;;;3.67;;
52962;SDS011;38827;53.024;6.596;2023-01-04T11:14:19;19.50;;;3.53;;
52962;SDS011;38827;53.024;6.596;2023-01-04T11:16:50;23.45;;;4.50;;
52962;SDS011;38827;53.024;6.596;2023-01-04T11:19:20;20.73;;;3.95;;
52962;SDS011;38827;53.024;6.596;2023-01-04T11:21:51;22.58;;;3.35;;
52962;SDS011;38827;53.024;6.596;2023-01-04T11:24:23;20.02;;;3.90;;
52962;SDS011;38827;53.024;6.596;2023-01-04T11:27:06;21.48;;;3.78;;
52962;SDS011;38827;53.024;6.596;2023-01-04T11:32:51;23.48;;;3.90;;
52962;SDS011;38827;53.024;6.596;2023-01-04T11:35:43;21.25;;;4.55;;
52962;SDS011;38827;53.024;6.596;2023-01-04T11:40:37;25.63;;;4.13;;
52962;SDS011;38827;53.024;6.596;2023-01-04T11:43:37;20.67;;;3.75;;
52962;SDS011;38827;53.024;6.596;2023-01-04T11:51:48;26.05;;;3.47;;
52962;SDS011;38827;53.024;6.596;2023-01-04T11:54:26;16.02;;;3.35;;
52962;SDS011;38827;53.024;6.596;2023-01-04T11:59:43;16.95;;;3.70;;
52962;SDS011;38827;53.024;6.596;2023-01-04T12:05:05;16.98;;;4.22;;
52962;SDS011;38827;53.024;6.596;2023-01-04T12:07:59;23.48;;;4.03;;
52962;SDS011;38827;53.024;6.596;2023-01-04T12:10:34;15.20;;;3.25;;
52962;SDS011;38827;53.024;6.596;2023-01-04T12:13:15;18.00;;;3.25;;
52962;SDS011;38827;53.024;6.596;2023-01-04T12:15:56;16.30;;;3.45;;
52962;SDS011;38827;53.024;6.596;2023-01-04T12:18:48;16.38;;;2.30;;
52962;SDS011;38827;53.024;6.596;2023-01-04T12:21:24;13.20;;;2.85;;
52962;SDS011;38827;53.024;6.596;2023-01-04T12:24:19;15.88;;;2.50;;
52962;SDS011;38827;53.024;6.596;2023-01-04T12:26:50;10.57;;;1.88;;
52962;SDS011;38827;53.024;6.596;2023-01-04T12:29:47;11.68;;;2.40;;
52962;SDS011;38827;53.024;6.596;2023-01-04T12:32:48;8.27;;;1.88;;
52962;SDS011;38827;53.024;6.596;2023-01-04T12:49:58;7.38;;;1.55;;
52962;SDS011;38827;53.024;6.596;2023-01-04T12:52:55;4.68;;;1.30;;
52962;SDS011;38827;53.024;6.596;2023-01-04T12:57:59;5.85;;;1.27;;
52962;SDS011;38827;53.024;6.596;2023-01-04T13:01:30;9.35;;;1.50;;
52962;SDS011;38827;53.024;6.596;2023-01-04T13:03:45;8.75;;;1.63;;
52962;SDS011;38827;53.024;6.596;2023-01-04T13:06:12;11.07;;;2.20;;
52962;SDS011;38827;53.024;6.596;2023-01-04T13:08:39;6.25;;;1.60;;
52962;SDS011;38827;53.024;6.596;2023-01-04T13:14:16;9.50;;;2.13;;
52962;SDS011;38827;53.024;6.596;2023-01-04T13:19:49;17.48;;;2.92;;
52962;SDS011;38827;53.024;6.596;2023-01-04T13:24:54;13.48;;;2.42;;
52962;SDS011;38827;53.024;6.596;2023-01-04T13:33:14;12.82;;;3.53;;
52962;SDS011;38827;53.024;6.596;2023-01-04T13:36:00;22.38;;;4.20;;
52962;SDS011;38827;53.024;6.596;2023-01-04T13:38:28;17.95;;;3.20;;
52962;SDS011;38827;53.024;6.596;2023-01-04T13:40:57;18.08;;;3.83;;
52962;SDS011;38827;53.024;6.596;2023-01-04T13:43:41;22.30;;;3.80;;
52962;SDS011;38827;53.024;6.596;2023-01-04T13:46:25;21.00;;;4.00;;
52962;SDS011;38827;53.024;6.596;2023-01-04T13:48:52;17.80;;;3.13;;
52962;SDS011;38827;53.024;6.596;2023-01-04T13:51:47;17.20;;;3.35;;
52962;SDS011;38827;53.024;6.596;2023-01-04T13:54:27;24.73;;;4.40;;
52962;SDS011;38827;53.024;6.596;2023-01-04T13:56:54;20.40;;;4.45;;
52962;SDS011;38827;53.024;6.596;2023-01-04T13:59:56;25.63;;;4.25;;
52962;SDS011;38827;53.024;6.596;2023-01-04T14:02:22;16.65;;;3.75;;
52962;SDS011;38827;53.024;6.596;2023-01-04T14:04:51;18.42;;;3.55;;
52962;SDS011;38827;53.024;6.596;2023-01-04T14:10:38;22.70;;;3.97;;
52962;SDS011;38827;53.024;6.596;2023-01-04T14:13:38;22.27;;;3.50;;
52962;SDS011;38827;53.024;6.596;2023-01-04T14:16:21;19.83;;;3.53;;
52962;SDS011;38827;53.024;6.596;2023-01-04T14:18:52;20.05;;;3.60;;
52962;SDS011;38827;53.024;6.596;2023-01-04T14:21:19;19.92;;;3.83;;
52962;SDS011;38827;53.024;6.596;2023-01-04T14:23:59;21.10;;;3.60;;
52962;SDS011;38827;53.024;6.596;2023-01-04T14:26:27;28.35;;;4.65;;
52962;SDS011;38827;53.024;6.596;2023-01-04T14:31:55;23.63;;;4.30;;
52962;SDS011;38827;53.024;6.596;2023-01-04T14:37:47;20.23;;;4.03;;
52962;SDS011;38827;53.024;6.596;2023-01-04T14:40:24;25.35;;;3.60;;
52962;SDS011;38827;53.024;6.596;2023-01-04T14:46:10;18.30;;;3.83;;
52962;SDS011;38827;53.024;6.596;2023-01-04T14:48:38;22.05;;;3.67;;
52962;SDS011;38827;53.024;6.596;2023-01-04T14:56:53;24.05;;;3.47;;
52962;SDS011;38827;53.024;6.596;2023-01-04T14:59:53;21.90;;;4.13;;
52962;SDS011;38827;53.024;6.596;2023-01-04T15:02:19;23.88;;;4.05;;
52962;SDS011;38827;53.024;6.596;2023-01-04T15:04:54;18.35;;;3.80;;
52962;SDS011;38827;53.024;6.596;2023-01-04T15:07:30;19.55;;;4.15;;
52962;SDS011;38827;53.024;6.596;2023-01-04T15:09:59;19.75;;;3.75;;
52962;SDS011;38827;53.024;6.596;2023-01-04T15:12:26;17.23;;;3.60;;
52962;SDS011;38827;53.024;6.596;2023-01-04T15:15:13;21.60;;;3.75;;
52962;SDS011;38827;53.024;6.596;2023-01-04T15:20:42;20.00;;;3.60;;
52962;SDS011;38827;53.024;6.596;2023-01-04T15:23:29;23.58;;;4.10;;
52962;SDS011;38827;53.024;6.596;2023-01-04T15:25:55;16.98;;;3.58;;
52962;SDS011;38827;53.024;6.596;2023-01-04T15:28:24;19.17;;;3.72;;
52962;SDS011;38827;53.024;6.596;2023-01-04T15:33:16;20.23;;;3.37;;
52962;SDS011;38827;53.024;6.596;2023-01-04T15:36:10;21.85;;;3.50;;
52962;SDS011;38827;53.024;6.596;2023-01-04T15:42:24;24.70;;;4.43;;
52962;SDS011;38827;53.024;6.596;2023-01-04T15:45:44;23.10;;;4.35;;
52962;SDS011;38827;53.024;6.596;2023-01-04T15:48:11;16.65;;;3.20;;
52962;SDS011;38827;53.024;6.596;2023-01-04T15:53:56;19.13;;;3.83;;
52962;SDS011;38827;53.024;6.596;2023-01-04T15:57:06;23.15;;;4.40;;
52962;SDS011;38827;53.024;6.596;2023-01-04T15:59:59;21.58;;;3.80;;
52962;SDS011;38827;53.024;6.596;2023-01-04T16:05:15;16.92;;;3.00;;
52962;SDS011;38827;53.024;6.596;2023-01-04T16:07:44;18.08;;;3.88;;
52962;SDS011;38827;53.024;6.596;2023-01-04T16:10:28;18.38;;;3.85;;
52962;SDS011;38827;53.024;6.596;2023-01-04T16:12:57;16.75;;;3.45;;
52962;SDS011;38827;53.024;6.596;2023-01-04T16:15:28;23.52;;;4.13;;
52962;SDS011;38827;53.024;6.596;2023-01-04T16:18:09;23.23;;;4.30;;
52962;SDS011;38827;53.024;6.596;2023-01-04T16:20:40;17.02;;;3.78;;
52962;SDS011;38827;53.024;6.596;2023-01-04T16:23:12;16.25;;;3.20;;
52962;SDS011;38827;53.024;6.596;2023-01-04T16:31:17;23.40;;;4.28;;
52962;SDS011;38827;53.024;6.596;2023-01-04T16:33:43;21.45;;;3.88;;
52962;SDS011;38827;53.024;6.596;2023-01-04T16:36:12;21.05;;;4.07;;
52962;SDS011;38827;53.024;6.596;2023-01-04T16:38:40;19.90;;;3.70;;
52962;SDS011;38827;53.024;6.596;2023-01-04T16:41:09;21.98;;;4.13;;
52962;SDS011;38827;53.024;6.596;2023-01-04T16:46:34;19.55;;;4.35;;
52962;SDS011;38827;53.024;6.596;2023-01-04T16:49:02;17.15;;;3.53;;
52962;SDS011;38827;53.024;6.596;2023-01-04T16:51:28;19.27;;;3.70;;
52962;SDS011;38827;53.024;6.596;2023-01-04T16:53:56;21.95;;;3.97;;
52962;SDS011;38827;53.024;6.596;2023-01-04T16:56:23;21.07;;;3.77;;
52962;SDS011;38827;53.024;6.596;2023-01-04T16:58:54;22.95;;;4.68;;
52962;SDS011;38827;53.024;6.596;2023-01-04T17:01:21;19.93;;;3.60;;
52962;SDS011;38827;53.024;6.596;2023-01-04T17:03:56;23.20;;;3.63;;
52962;SDS011;38827;53.024;6.596;2023-01-04T17:06:24;18.73;;;3.90;;
52962;SDS011;38827;53.024;6.596;2023-01-04T17:08:52;20.98;;;3.92;;
52962;SDS011;38827;53.024;6.596;2023-01-04T17:11:20;24.20;;;4.47;;
52962;SDS011;38827;53.024;6.596;2023-01-04T17:14:02;24.70;;;4.40;;
52962;SDS011;38827;53.024;6.596;2023-01-04T17:16:30;21.23;;;3.63;;
52962;SDS011;38827;53.024;6.596;2023-01-04T17:21:38;25.67;;;4.10;;
52962;SDS011;38827;53.024;6.596;2023-01-04T17:24:09;18.63;;;3.70;;
52962;SDS011;38827;53.024;6.596;2023-01-04T17:26:50;22.50;;;3.53;;
52962;SDS011;38827;53.024;6.596;2023-01-04T17:29:16;15.65;;;4.05;;
52962;SDS011;38827;53.024;6.596;2023-01-04T17:31:42;21.60;;;4.28;;
52962;SDS011;38827;53.024;6.596;2023-01-04T17:34:10;25.33;;;3.78;;
52962;SDS011;38827;53.024;6.596;2023-01-04T17:36:39;20.92;;;4.25;;
52962;SDS011;38827;53.024;6.596;2023-01-04T17:39:05;27.98;;;4.75;;
52962;SDS011;38827;53.024;6.596;2023-01-04T17:41:31;21.13;;;3.78;;
52962;SDS011;38827;53.024;6.596;2023-01-04T17:44:00;20.73;;;3.95;;
52962;SDS011;38827;53.024;6.596;2023-01-04T17:46:29;23.90;;;4.93;;
52962;SDS011;38827;53.024;6.596;2023-01-04T17:48:57;22.00;;;3.83;;
52962;SDS011;38827;53.024;6.596;2023-01-04T17:51:25;19.55;;;3.95;;
52962;SDS011;38827;53.024;6.596;2023-01-04T17:54:12;22.48;;;4.18;;
52962;SDS011;38827;53.024;6.596;2023-01-04T17:56:41;23.83;;;4.82;;
52962;SDS011;38827;53.024;6.596;2023-01-04T17:59:06;26.67;;;4.95;;
52962;SDS011;38827;53.024;6.596;2023-01-04T18:04:05;23.80;;;4.22;;
52962;SDS011;38827;53.024;6.596;2023-01-04T18:06:42;23.88;;;4.30;;
52962;SDS011;38827;53.024;6.596;2023-01-04T18:09:11;27.60;;;4.90;;
52962;SDS011;38827;53.024;6.596;2023-01-04T18:11:55;26.58;;;4.78;;
52962;SDS011;38827;53.024;6.596;2023-01-04T18:14:20;29.75;;;6.15;;
52962;SDS011;38827;53.024;6.596;2023-01-04T18:16:52;30.98;;;4.88;;
52962;SDS011;38827;53.024;6.596;2023-01-04T18:19:48;25.83;;;4.78;;
52962;SDS011;38827;53.024;6.596;2023-01-04T18:22:14;24.55;;;4.65;;
52962;SDS011;38827;53.024;6.596;2023-01-04T18:24:40;24.33;;;5.03;;
52962;SDS011;38827;53.024;6.596;2023-01-04T18:27:12;29.45;;;5.43;;
52962;SDS011;38827;53.024;6.596;2023-01-04T18:29:50;21.30;;;4.80;;
52962;SDS011;38827;53.024;6.596;2023-01-04T18:35:05;25.30;;;4.38;;
52962;SDS011;38827;53.024;6.596;2023-01-04T18:41:32;30.80;;;5.57;;
52962;SDS011;38827;53.024;6.596;2023-01-04T18:52:08;32.45;;;6.05;;
52962;SDS011;38827;53.024;6.596;2023-01-04T18:55:09;25.35;;;4.90;;
52962;SDS011;38827;53.024;6.596;2023-01-04T19:00:57;24.00;;;5.00;;
52962;SDS011;38827;53.024;6.596;2023-01-04T19:10:54;26.98;;;3.95;;
52962;SDS011;38827;53.024;6.596;2023-01-04T19:17:04;29.98;;;5.07;;
52962;SDS011;38827;53.024;6.596;2023-01-04T19:19:42;29.20;;;5.32;;
52962;SDS011;38827;53.024;6.596;2023-01-04T19:22:12;24.95;;;4.90;;
52962;SDS011;38827;53.024;6.596;2023-01-04T19:24:53;28.27;;;5.53;;
52962;SDS011;38827;53.024;6.596;2023-01-04T19:27:40;27.52;;;5.28;;
52962;SDS011;38827;53.024;6.596;2023-01-04T19:30:06;26.40;;;5.05;;
52962;SDS011;38827;53.024;6.596;2023-01-04T19:32:42;25.48;;;5.00;;
52962;SDS011;38827;53.024;6.596;2023-01-04T19:38:31;28.40;;;4.60;;
52962;SDS011;38827;53.024;6.596;2023-01-04T19:41:13;25.98;;;4.78;;
52962;SDS011;38827;53.024;6.596;2023-01-04T19:44:03;27.92;;;5.60;;
52962;SDS011;38827;53.024;6.596;2023-01-04T19:46:32;27.65;;;4.63;;
52962;SDS011;38827;53.024;6.596;2023-01-04T19:48:57;29.02;;;5.30;;
52962;SDS011;38827;53.024;6.596;2023-01-04T19:51:39;27.42;;;4.85;;
52962;SDS011;38827;53.024;6.596;2023-01-04T19:54:07;26.40;;;4.47;;
52962;SDS011;38827;53.024;6.596;2023-01-04T19:56:42;29.38;;;5.32;;
52962;SDS011;38827;53.024;6.596;2023-01-04T19:59:13;24.73;;;4.03;;
52962;SDS011;38827;53.024;6.596;2023-01-04T20:01:45;24.77;;;5.00;;
52962;SDS011;38827;53.024;6.596;2023-01-04T20:04:17;27.30;;;4.50;;
52962;SDS011;38827;53.024;6.596;2023-01-04T20:06:43;27.42;;;5.22;;
52962;SDS011;38827;53.024;6.596;2023-01-04T20:09:16;26.10;;;4.43;;
52962;SDS011;38827;53.024;6.596;2023-01-04T20:12:04;24.77;;;5.05;;
52962;SDS011;38827;53.024;6.596;2023-01-04T20:14:30;29.30;;;4.88;;
52962;SDS011;38827;53.024;6.596;2023-01-04T20:17:07;27.35;;;4.70;;
52962;SDS011;38827;53.024;6.596;2023-01-04T20:19:45;25.98;;;4.57;;
52962;SDS011;38827;53.024;6.596;2023-01-04T20:22:16;27.17;;;4.60;;
52962;SDS011;38827;53.024;6.596;2023-01-04T20:25:00;26.70;;;4.90;;
52962;SDS011;38827;53.024;6.596;2023-01-04T20:27:38;25.05;;;4.35;;
52962;SDS011;38827;53.024;6.596;2023-01-04T20:30:04;27.38;;;5.60;;
52962;SDS011;38827;53.024;6.596;2023-01-04T20:36:06;24.77;;;5.65;;
52962;SDS011;38827;53.024;6.596;2023-01-04T20:38:37;28.23;;;5.55;;
52962;SDS011;38827;53.024;6.596;2023-01-04T20:41:20;37.08;;;6.00;;
52962;SDS011;38827;53.024;6.596;2023-01-04T20:43:47;26.83;;;5.00;;
52962;SDS011;38827;53.024;6.596;2023-01-04T20:46:27;29.27;;;5.78;;
52962;SDS011;38827;53.024;6.596;2023-01-04T20:49:05;23.55;;;5.50;;
52962;SDS011;38827;53.024;6.596;2023-01-04T20:51:46;31.33;;;5.78;;
52962;SDS011;38827;53.024;6.596;2023-01-04T20:57:43;34.60;;;5.45;;
52962;SDS011;38827;53.024;6.596;2023-01-04T21:00:50;32.58;;;5.13;;
52962;SDS011;38827;53.024;6.596;2023-01-04T21:21:05;23.45;;;4.28;;
52962;SDS011;38827;53.024;6.596;2023-01-04T21:27:41;26.17;;;5.43;;
52962;SDS011;38827;53.024;6.596;2023-01-04T21:30:07;26.25;;;4.18;;
52962;SDS011;38827;53.024;6.596;2023-01-04T21:38:17;25.63;;;4.20;;
52962;SDS011;38827;53.024;6.596;2023-01-04T21:40:49;28.73;;;4.47;;
52962;SDS011;38827;53.024;6.596;2023-01-04T21:43:27;28.02;;;5.45;;
52962;SDS011;38827;53.024;6.596;2023-01-04T21:45:53;29.65;;;5.28;;
52962;SDS011;38827;53.024;6.596;2023-01-04T22:13:46;27.75;;;5.15;;
